createdAt,value
2024-01-24T00:00:14.080Z,96358.00
2024-01-24T00:01:14.092Z,96356.00
2024-01-24T00:02:14.050Z,96357.00
2024-01-24T00:03:14.195Z,96361.00
2024-01-24T00:04:14.239Z,96364.00
2024-01-24T00:05:14.173Z,96361.00
2024-01-24T00:06:14.283Z,96359.00
2024-01-24T00:07:14.208Z,96355.00
2024-01-24T00:08:14.214Z,96354.00
2024-01-24T00:09:14.280Z,96354.00
2024-01-24T00:10:14.256Z,96353.00
2024-01-24T00:11:14.325Z,96351.00
2024-01-24T00:12:14.413Z,96349.00
2024-01-24T00:13:14.383Z,96351.00
2024-01-24T00:14:14.377Z,96351.00
2024-01-24T00:15:14.463Z,96350.00
2024-01-24T00:16:14.472Z,96347.00
2024-01-24T00:17:14.483Z,96348.00
2024-01-24T00:18:14.694Z,96349.00
2024-01-24T00:19:14.594Z,96351.00
2024-01-24T00:20:14.579Z,96353.00
2024-01-24T00:21:14.617Z,96346.00
2024-01-24T00:22:14.617Z,96337.00
2024-01-24T00:23:14.650Z,96332.00
2024-01-24T00:24:14.694Z,96335.00
2024-01-24T00:25:14.662Z,96340.00
2024-01-24T00:26:14.698Z,96343.00
2024-01-24T00:27:14.743Z,96342.00
2024-01-24T00:28:14.730Z,96336.00
2024-01-24T00:29:14.752Z,96329.00
2024-01-24T00:30:14.864Z,96324.00
2024-01-24T00:31:14.850Z,96319.00
2024-01-24T00:32:14.877Z,96313.00
2024-01-24T00:33:14.929Z,96313.00
2024-01-24T00:34:15.057Z,96313.00
2024-01-24T00:35:14.917Z,96313.00
2024-01-24T00:36:14.921Z,96317.00
2024-01-24T00:37:14.993Z,96320.00
2024-01-24T00:38:15.045Z,96318.00
2024-01-24T00:39:15.118Z,96316.00
2024-01-24T00:40:15.103Z,96313.00
2024-01-24T00:41:15.161Z,96313.00
2024-01-24T00:42:15.221Z,96311.00
2024-01-24T00:43:16.150Z,96312.00
2024-01-24T00:44:15.337Z,96315.00
2024-01-24T00:45:15.482Z,96318.00
2024-01-24T00:46:15.565Z,96319.00
2024-01-24T00:47:15.626Z,96319.00
2024-01-24T00:48:15.780Z,96321.00
2024-01-24T00:49:15.690Z,96324.00
2024-01-24T00:50:15.696Z,96321.00
2024-01-24T00:51:15.652Z,96314.00
2024-01-24T00:52:15.646Z,96314.00
2024-01-24T00:53:15.652Z,96315.00
2024-01-24T00:54:15.733Z,96316.00
2024-01-24T00:55:15.678Z,96315.00
2024-01-24T00:56:15.713Z,96314.00
2024-01-24T00:57:15.768Z,96309.00
2024-01-24T00:58:15.746Z,96315.00
2024-01-24T00:59:15.798Z,96317.00
2024-01-24T01:00:15.860Z,96316.00
2024-01-24T01:01:15.961Z,96314.00
2024-01-24T01:02:15.926Z,96316.00
2024-01-24T01:03:16.068Z,96320.00
2024-01-24T01:04:16.043Z,96322.00
2024-01-24T01:05:16.055Z,96320.00
2024-01-24T01:06:16.116Z,96319.00
2024-01-24T01:07:16.162Z,96319.00
2024-01-24T01:08:16.175Z,96317.00
2024-01-24T01:09:16.270Z,96317.00
2024-01-24T01:10:16.224Z,96318.00
2024-01-24T01:11:16.301Z,96322.00
2024-01-24T01:12:16.400Z,96322.00
2024-01-24T01:13:16.392Z,96317.00
2024-01-24T01:14:16.458Z,96312.00
2024-01-24T01:15:16.542Z,96309.00
2024-01-24T01:16:16.567Z,96310.00
2024-01-24T01:17:16.672Z,96313.00
2024-01-24T01:18:16.741Z,96315.00
2024-01-24T01:19:16.874Z,96316.00
2024-01-24T01:20:16.849Z,96318.00
2024-01-24T01:21:16.975Z,96318.00
2024-01-24T01:22:16.973Z,96314.00
2024-01-24T01:23:16.997Z,96314.00
2024-01-24T01:24:17.157Z,96314.00
2024-01-24T01:25:17.139Z,96319.00
2024-01-24T01:26:17.162Z,96319.00
2024-01-24T01:27:17.300Z,96316.00
2024-01-24T01:28:17.250Z,96315.00
2024-01-24T01:29:17.285Z,96308.00
2024-01-24T01:30:17.390Z,96301.00
2024-01-24T01:31:17.448Z,96294.00
2024-01-24T01:32:17.514Z,96290.00
2024-01-24T01:33:17.695Z,96284.00
2024-01-24T01:34:17.678Z,96282.00
2024-01-24T01:35:17.666Z,96278.00
2024-01-24T01:36:22.972Z,96273.00
2024-01-24T01:37:18.737Z,96270.00
2024-01-24T01:38:17.728Z,96270.00
2024-01-24T01:39:17.749Z,96274.00
2024-01-24T01:40:17.698Z,96271.00
2024-01-24T01:41:17.759Z,96271.00
2024-01-24T01:42:17.736Z,96268.00
2024-01-24T01:43:17.730Z,96266.00
2024-01-24T01:44:17.745Z,96265.00
2024-01-24T01:45:17.812Z,96266.00
2024-01-24T01:46:17.745Z,96264.00
2024-01-24T01:47:17.747Z,96263.00
2024-01-24T01:48:17.871Z,96260.00
2024-01-24T01:49:17.817Z,96258.00
2024-01-24T01:50:17.758Z,96255.00
2024-01-24T01:51:17.751Z,96259.00
2024-01-24T01:52:17.809Z,96260.00
2024-01-24T01:53:17.833Z,96249.00
2024-01-24T01:54:17.937Z,96243.00
2024-01-24T01:55:17.942Z,96239.00
2024-01-24T01:56:18.015Z,96234.00
2024-01-24T01:57:18.142Z,96231.00
2024-01-24T01:58:18.108Z,96225.00
2024-01-24T01:59:18.166Z,96215.00
2024-01-24T02:00:18.251Z,96213.00
2024-01-24T02:01:18.405Z,96214.00
2024-01-24T02:02:18.336Z,96217.00
2024-01-24T02:03:18.444Z,96219.00
2024-01-24T02:04:18.491Z,96220.00
2024-01-24T02:05:18.498Z,96218.00
2024-01-24T02:06:18.676Z,96216.00
2024-01-24T02:07:18.635Z,96216.00
2024-01-24T02:08:18.588Z,96219.00
2024-01-24T02:09:18.632Z,96227.00
2024-01-24T02:10:18.666Z,96228.00
2024-01-24T02:11:18.749Z,96222.00
2024-01-24T02:12:18.800Z,96218.00
2024-01-24T02:13:18.813Z,96219.00
2024-01-24T02:14:18.876Z,96220.00
2024-01-24T02:15:18.951Z,96213.00
2024-01-24T02:16:21.275Z,96206.00
2024-01-24T02:17:19.163Z,96205.00
2024-01-24T02:18:19.221Z,96199.00
2024-01-24T02:19:19.263Z,96194.00
2024-01-24T02:20:19.296Z,96193.00
2024-01-24T02:21:19.342Z,96200.00
2024-01-24T02:22:19.433Z,96202.00
2024-01-24T02:23:19.456Z,96198.00
2024-01-24T02:24:19.522Z,96190.00
2024-01-24T02:25:19.561Z,96188.00
2024-01-24T02:26:19.579Z,96184.00
2024-01-24T02:27:19.649Z,96177.00
2024-01-24T02:28:19.681Z,96170.00
2024-01-24T02:29:19.725Z,96170.00
2024-01-24T02:30:19.767Z,96170.00
2024-01-24T02:31:19.818Z,96169.00
2024-01-24T02:32:19.855Z,96164.00
2024-01-24T02:33:20.015Z,96162.00
2024-01-24T02:34:20.025Z,96162.00
2024-01-24T02:35:19.993Z,96160.00
2024-01-24T02:36:20.060Z,96158.00
2024-01-24T02:37:20.092Z,96158.00
2024-01-24T02:38:20.129Z,96159.00
2024-01-24T02:39:20.247Z,96155.00
2024-01-24T02:40:20.211Z,96156.00
2024-01-24T02:41:20.270Z,96156.00
2024-01-24T02:42:20.334Z,96154.00
2024-01-24T02:43:20.334Z,96153.00
2024-01-24T02:44:20.407Z,96156.00
2024-01-24T02:45:20.445Z,96155.00
2024-01-24T02:46:20.470Z,96157.00
2024-01-24T02:47:20.484Z,96159.00
2024-01-24T02:48:20.633Z,96158.00
2024-01-24T02:49:20.632Z,96157.00
2024-01-24T02:50:20.641Z,96157.00
2024-01-24T02:51:20.663Z,96156.00
2024-01-24T02:52:20.695Z,96152.00
2024-01-24T02:53:20.735Z,96145.00
2024-01-24T02:54:20.795Z,96144.00
2024-01-24T02:55:20.824Z,96144.00
2024-01-24T02:56:20.867Z,96145.00
2024-01-24T02:57:20.910Z,96142.00
2024-01-24T02:58:20.942Z,96139.00
2024-01-24T02:59:20.976Z,96140.00
2024-01-24T03:00:21.035Z,96141.00
2024-01-24T03:01:21.168Z,96143.00
2024-01-24T03:02:21.084Z,96134.00
2024-01-24T03:03:21.183Z,96126.00
2024-01-24T03:04:21.372Z,96123.00
2024-01-24T03:05:21.196Z,96123.00
2024-01-24T03:06:21.334Z,96125.00
2024-01-24T03:07:21.299Z,96123.00
2024-01-24T03:08:21.325Z,96116.00
2024-01-24T03:09:21.361Z,96111.00
2024-01-24T03:10:21.362Z,96105.00
2024-01-24T03:11:21.435Z,96107.00
2024-01-24T03:12:21.489Z,96102.00
2024-01-24T03:13:21.558Z,96106.00
2024-01-24T03:14:21.543Z,96109.00
2024-01-24T03:15:21.604Z,96102.00
2024-01-24T03:16:21.618Z,96099.00
2024-01-24T03:17:21.651Z,96099.00
2024-01-24T03:18:21.827Z,96100.00
2024-01-24T03:19:21.838Z,96094.00
2024-01-24T03:20:21.769Z,96093.00
2024-01-24T03:21:21.829Z,96095.00
2024-01-24T03:22:21.823Z,96098.00
2024-01-24T03:23:21.875Z,96093.00
2024-01-24T03:24:21.913Z,96088.00
2024-01-24T03:25:21.936Z,96090.00
2024-01-24T03:26:21.949Z,96089.00
2024-01-24T03:27:21.987Z,96088.00
2024-01-24T03:28:22.037Z,96088.00
2024-01-24T03:29:22.068Z,96092.00
2024-01-24T03:30:22.098Z,96090.00
2024-01-24T03:31:22.095Z,96088.00
2024-01-24T03:32:22.127Z,96088.00
2024-01-24T03:33:22.196Z,96089.00
2024-01-24T03:34:22.232Z,96093.00
2024-01-24T03:35:22.200Z,96086.00
2024-01-24T03:36:22.265Z,96081.00
2024-01-24T03:37:22.233Z,96082.00
2024-01-24T03:38:22.285Z,96081.00
2024-01-24T03:39:22.336Z,96074.00
2024-01-24T03:40:22.354Z,96076.00
2024-01-24T03:41:22.347Z,96074.00
2024-01-24T03:42:22.446Z,96082.00
2024-01-24T03:43:22.485Z,96087.00
2024-01-24T03:44:22.448Z,96087.00
2024-01-24T03:45:22.576Z,96086.00
2024-01-24T03:46:22.510Z,96089.00
2024-01-24T03:47:22.507Z,96084.00
2024-01-24T03:48:22.626Z,96081.00
2024-01-24T03:49:22.951Z,96076.00
2024-01-24T03:50:22.587Z,96078.00
2024-01-24T03:51:22.736Z,96079.00
2024-01-24T03:52:22.722Z,96078.00
2024-01-24T03:53:22.733Z,96074.00
2024-01-24T03:54:22.744Z,96074.00
2024-01-24T03:55:22.770Z,96074.00
2024-01-24T03:56:22.780Z,96076.00
2024-01-24T03:57:22.839Z,96076.00
2024-01-24T03:58:22.831Z,96074.00
2024-01-24T03:59:22.858Z,96072.00
2024-01-24T04:00:22.920Z,96071.00
2024-01-24T04:01:23.030Z,96067.00
2024-01-24T04:02:22.952Z,96068.00
2024-01-24T04:03:23.071Z,96071.00
2024-01-24T04:04:23.179Z,96071.00
2024-01-24T04:05:23.013Z,96074.00
2024-01-24T04:06:23.110Z,96067.00
2024-01-24T04:07:23.082Z,96062.00
2024-01-24T04:08:23.032Z,96058.00
2024-01-24T04:09:23.125Z,96063.00
2024-01-24T04:10:23.079Z,96066.00
2024-01-24T04:11:23.128Z,96071.00
2024-01-24T04:12:23.213Z,96072.00
2024-01-24T04:13:23.178Z,96072.00
2024-01-24T04:14:23.180Z,96072.00
2024-01-24T04:15:23.345Z,96063.00
2024-01-24T04:16:23.225Z,96059.00
2024-01-24T04:17:23.271Z,96055.00
2024-01-24T04:18:23.342Z,96055.00
2024-01-24T04:19:23.381Z,96053.00
2024-01-24T04:20:23.380Z,96046.00
2024-01-24T04:21:23.367Z,96052.00
2024-01-24T04:22:23.373Z,96048.00
2024-01-24T04:23:23.508Z,96045.00
2024-01-24T04:24:23.543Z,96052.00
2024-01-24T04:25:23.415Z,96051.00
2024-01-24T04:26:23.552Z,96041.00
2024-01-24T04:27:23.586Z,96039.00
2024-01-24T04:28:23.546Z,96040.00
2024-01-24T04:29:23.585Z,96036.00
2024-01-24T04:30:24.260Z,96042.00
2024-01-24T04:31:23.657Z,96049.00
2024-01-24T04:32:23.632Z,96059.00
2024-01-24T04:33:23.716Z,96066.00
2024-01-24T04:34:31.103Z,96064.00
2024-01-24T04:35:30.998Z,96064.00
2024-01-24T04:36:31.034Z,96065.00
2024-01-24T04:37:31.032Z,96061.00
2024-01-24T04:38:31.018Z,96061.00
2024-01-24T04:39:31.049Z,96062.00
2024-01-24T04:40:31.038Z,96066.00
2024-01-24T04:41:31.052Z,96065.00
2024-01-24T04:42:31.016Z,96055.00
2024-01-24T04:43:31.030Z,96050.00
2024-01-24T04:44:31.028Z,96059.00
2024-01-24T04:45:31.054Z,96051.00
2024-01-24T04:46:31.013Z,96045.00
2024-01-24T04:47:31.044Z,96049.00
2024-01-24T04:48:31.099Z,96050.00
2024-01-24T04:49:40.246Z,96046.00
2024-01-24T04:50:32.162Z,96044.00
2024-01-24T04:51:31.093Z,96055.00
2024-01-24T04:52:31.037Z,96057.00
2024-01-24T04:53:31.081Z,96058.00
2024-01-24T04:54:31.040Z,96059.00
2024-01-24T04:55:31.043Z,96057.00
2024-01-24T04:56:31.044Z,96046.00
2024-01-24T04:57:31.093Z,96050.00
2024-01-24T04:58:31.059Z,96058.00
2024-01-24T04:59:32.093Z,96054.00
2024-01-24T05:00:31.079Z,96057.00
2024-01-24T05:01:31.124Z,96055.00
2024-01-24T05:02:31.076Z,96050.00
2024-01-24T05:03:31.102Z,96049.00
2024-01-24T05:04:31.118Z,96054.00
2024-01-24T05:05:31.071Z,96047.00
2024-01-24T05:06:31.079Z,96042.00
2024-01-24T05:07:31.043Z,96048.00
2024-01-24T05:08:31.054Z,96054.00
2024-01-24T05:09:31.095Z,96057.00
2024-01-24T05:10:31.032Z,96060.00
2024-01-24T05:11:31.046Z,96058.00
2024-01-24T05:12:31.062Z,96058.00
2024-01-24T05:13:31.048Z,96062.00
2024-01-24T05:14:31.029Z,96067.00
2024-01-24T05:15:31.057Z,96070.00
2024-01-24T05:16:31.070Z,96065.00
2024-01-24T05:17:31.046Z,96062.00
2024-01-24T05:18:31.144Z,96065.00
2024-01-24T05:19:31.092Z,96067.00
2024-01-24T05:20:31.039Z,96057.00
2024-01-24T05:21:31.055Z,96048.00
2024-01-24T05:22:31.062Z,96047.00
2024-01-24T05:23:31.043Z,96050.00
2024-01-24T05:24:31.086Z,96047.00
2024-01-24T05:25:31.060Z,96043.00
2024-01-24T05:26:31.066Z,96045.00
2024-01-24T05:27:31.109Z,96043.00
2024-01-24T05:28:31.058Z,96051.00
2024-01-24T05:29:31.059Z,96037.00
2024-01-24T05:30:35.775Z,96025.00
2024-01-24T05:31:32.117Z,96031.00
2024-01-24T05:32:31.112Z,96032.00
2024-01-24T05:33:31.273Z,96031.00
2024-01-24T05:34:31.236Z,96033.00
2024-01-24T05:35:31.101Z,96029.00
2024-01-24T05:36:31.140Z,96022.00
2024-01-24T05:37:31.105Z,96025.00
2024-01-24T05:38:31.067Z,96030.00
2024-01-24T05:39:31.133Z,96027.00
2024-01-24T05:40:31.066Z,96018.00
2024-01-24T05:41:31.055Z,96016.00
2024-01-24T05:42:31.086Z,96017.00
2024-01-24T05:43:31.096Z,96019.00
2024-01-24T05:44:31.075Z,96014.00
2024-01-24T05:45:31.120Z,96018.00
2024-01-24T05:46:31.073Z,96018.00
2024-01-24T05:47:31.189Z,96022.00
2024-01-24T05:48:31.259Z,96026.00
2024-01-24T05:49:31.369Z,96034.00
2024-01-24T05:50:31.187Z,96036.00
2024-01-24T05:51:31.299Z,96028.00
2024-01-24T05:52:31.317Z,96024.00
2024-01-24T05:53:31.319Z,96028.00
2024-01-24T05:54:31.415Z,96029.00
2024-01-24T05:55:31.421Z,96020.00
2024-01-24T05:56:31.459Z,96015.00
2024-01-24T05:57:31.493Z,96012.00
2024-01-24T05:58:31.546Z,96019.00
2024-01-24T05:59:31.615Z,96015.00
2024-01-24T06:01:54.227Z,96004.00
2024-01-24T06:02:31.639Z,96004.00
2024-01-24T06:03:31.715Z,96005.00
2024-01-24T06:04:31.754Z,95998.00
2024-01-24T06:05:31.739Z,96001.00
2024-01-24T06:06:31.701Z,96003.00
2024-01-24T06:07:31.700Z,95997.00
2024-01-24T06:08:31.649Z,95998.00
2024-01-24T06:09:31.702Z,95999.00
2024-01-24T06:10:31.635Z,95998.00
2024-01-24T06:11:31.612Z,95996.00
2024-01-24T06:12:31.667Z,95980.00
2024-01-24T06:13:31.655Z,95979.00
2024-01-24T06:14:31.654Z,95988.00
2024-01-24T06:15:31.661Z,95985.00
2024-01-24T06:16:31.660Z,95980.00
2024-01-24T06:17:34.008Z,95978.00
2024-01-24T06:18:31.688Z,95981.00
2024-01-24T06:19:31.696Z,95980.00
2024-01-24T06:20:31.617Z,95975.00
2024-01-24T06:21:31.636Z,95982.00
2024-01-24T06:22:31.644Z,95991.00
2024-01-24T06:23:31.685Z,95983.00
2024-01-24T06:24:31.693Z,95993.00
2024-01-24T06:25:31.677Z,95993.00
2024-01-24T06:26:31.673Z,95993.00
2024-01-24T06:27:31.691Z,95994.00
2024-01-24T06:28:31.653Z,95988.00
2024-01-24T06:30:15.618Z,95989.00
2024-01-24T06:30:32.696Z,95975.00
2024-01-24T06:31:31.655Z,95970.00
2024-01-24T06:32:31.719Z,95977.00
2024-01-24T06:33:31.728Z,95979.00
2024-01-24T06:34:31.714Z,95977.00
2024-01-24T06:35:31.684Z,95989.00
2024-01-24T06:36:31.745Z,95984.00
2024-01-24T06:37:31.676Z,95969.00
2024-01-24T06:38:31.659Z,95971.00
2024-01-24T06:39:31.709Z,95978.00
2024-01-24T06:40:31.676Z,95978.00
2024-01-24T06:41:31.677Z,95982.00
2024-01-24T06:42:31.726Z,95981.00
2024-01-24T06:43:31.742Z,95990.00
2024-01-24T06:44:31.746Z,95990.00
2024-01-24T06:45:31.878Z,95989.00
2024-01-24T06:46:54.350Z,95983.00
2024-01-24T06:47:31.850Z,95984.00
2024-01-24T06:48:32.308Z,95978.00
2024-01-24T06:49:32.161Z,95980.00
2024-01-24T06:50:31.860Z,95977.00
2024-01-24T06:51:31.900Z,95964.00
2024-01-24T06:52:31.882Z,95964.00
2024-01-24T06:53:31.901Z,95974.00
2024-01-24T06:54:31.895Z,95972.00
2024-01-24T06:55:31.849Z,95968.00
2024-01-24T06:56:31.857Z,95963.00
2024-01-24T06:57:31.867Z,95970.00
2024-01-24T06:58:31.912Z,95961.00
2024-01-24T06:59:31.901Z,95958.00
2024-01-24T07:00:31.894Z,95968.00
2024-01-24T07:01:31.983Z,95971.00
2024-01-24T07:02:31.912Z,95962.00
2024-01-24T07:03:32.023Z,95956.00
2024-01-24T07:04:31.933Z,95955.00
2024-01-24T07:05:31.887Z,95956.00
2024-01-24T07:06:31.992Z,95957.00
2024-01-24T07:07:31.985Z,95952.00
2024-01-24T07:08:32.095Z,95947.00
2024-01-24T07:09:32.126Z,95949.00
2024-01-24T07:10:32.150Z,95953.00
2024-01-24T07:11:32.224Z,95950.00
2024-01-24T07:12:32.259Z,95952.00
2024-01-24T07:13:32.286Z,95956.00
2024-01-24T07:14:32.344Z,95953.00
2024-01-24T07:15:32.371Z,95949.00
2024-01-24T07:16:32.436Z,95952.00
2024-01-24T07:17:32.507Z,95965.00
2024-01-24T07:18:32.684Z,95970.00
2024-01-24T07:19:32.652Z,95965.00
2024-01-24T07:20:32.641Z,95960.00
2024-01-24T07:21:32.719Z,95966.00
2024-01-24T07:22:32.852Z,95969.00
2024-01-24T07:23:32.780Z,95957.00
2024-01-24T07:24:32.868Z,95963.00
2024-01-24T07:25:32.840Z,95960.00
2024-01-24T07:26:32.941Z,95958.00
2024-01-24T07:27:35.101Z,95954.00
2024-01-24T07:28:33.010Z,95957.00
2024-01-24T07:29:33.044Z,95944.00
2024-01-24T07:30:32.991Z,95946.00
2024-01-24T07:31:32.996Z,95950.00
2024-01-24T07:32:33.065Z,95949.00
2024-01-24T07:33:33.062Z,95942.00
2024-01-24T07:34:33.110Z,95937.00
2024-01-24T07:35:33.008Z,95937.00
2024-01-24T07:36:33.029Z,95954.00
2024-01-24T07:37:33.017Z,95956.00
2024-01-24T07:38:33.035Z,95953.00
2024-01-24T07:39:33.035Z,95955.00
2024-01-24T07:40:32.986Z,95950.00
2024-01-24T07:41:32.994Z,95947.00
2024-01-24T07:42:33.061Z,95943.00
2024-01-24T07:43:33.330Z,95945.00
2024-01-24T07:44:33.484Z,95944.00
2024-01-24T07:45:33.032Z,95940.00
2024-01-24T07:46:34.008Z,95934.00
2024-01-24T07:47:33.027Z,95933.00
2024-01-24T07:48:33.136Z,95926.00
2024-01-24T07:49:34.134Z,95929.00
2024-01-24T07:50:33.035Z,95929.00
2024-01-24T07:51:33.026Z,95926.00
2024-01-24T07:52:40.601Z,95925.00
2024-01-24T07:53:34.410Z,95913.00
2024-01-24T07:54:33.107Z,95915.00
2024-01-24T07:55:41.621Z,95914.00
2024-01-24T07:56:34.775Z,95930.00
2024-01-24T07:57:33.037Z,95928.00
2024-01-24T07:58:33.201Z,95922.00
2024-01-24T07:59:33.021Z,95930.00
2024-01-24T08:00:33.111Z,95941.00
2024-01-24T08:01:33.133Z,95939.00
2024-01-24T08:02:33.055Z,95935.00
2024-01-24T08:03:33.092Z,95950.00
2024-01-24T08:04:33.060Z,95941.00
2024-01-24T08:05:33.069Z,95922.00
2024-01-24T08:06:33.185Z,95920.00
2024-01-24T08:07:32.996Z,95935.00
2024-01-24T08:08:33.023Z,95930.00
2024-01-24T08:09:33.076Z,95925.00
2024-01-24T08:10:33.100Z,95944.00
2024-01-24T08:11:33.135Z,95942.00
2024-01-24T08:12:33.266Z,95933.00
2024-01-24T08:13:33.224Z,95916.00
2024-01-24T08:14:33.224Z,95935.00
2024-01-24T08:15:33.286Z,95924.00
2024-01-24T08:16:33.270Z,95911.00
2024-01-24T08:17:33.388Z,95903.00
2024-01-24T08:18:33.460Z,95908.00
2024-01-24T08:19:33.533Z,95909.00
2024-01-24T08:20:33.463Z,95896.00
2024-01-24T08:21:33.615Z,95907.00
2024-01-24T08:22:33.526Z,95917.00
2024-01-24T08:23:42.221Z,95896.00
2024-01-24T08:24:34.598Z,95917.00
2024-01-24T08:25:33.566Z,95901.00
2024-01-24T08:26:33.617Z,95886.00
2024-01-24T08:27:33.670Z,95899.00
2024-01-24T08:28:33.560Z,95902.00
2024-01-24T08:29:37.605Z,95908.00
2024-01-24T08:30:33.612Z,95911.00
2024-01-24T08:31:33.543Z,95892.00
2024-01-24T08:32:33.679Z,95894.00
2024-01-24T08:33:33.717Z,95891.00
2024-01-24T08:34:33.603Z,95902.00
2024-01-24T08:35:33.617Z,95909.00
2024-01-24T08:36:33.570Z,95911.00
2024-01-24T08:37:33.593Z,95904.00
2024-01-24T08:38:33.621Z,95887.00
2024-01-24T08:39:33.632Z,95890.00
2024-01-24T08:40:33.566Z,95886.00
2024-01-24T08:41:33.708Z,95883.00
2024-01-24T08:42:33.600Z,95893.00
2024-01-24T08:43:33.556Z,95893.00
2024-01-24T08:44:33.588Z,95874.00
2024-01-24T08:45:33.669Z,95890.00
2024-01-24T08:46:33.617Z,95892.00
2024-01-24T08:47:33.661Z,95900.00
2024-01-24T08:48:33.753Z,95878.00
2024-01-24T08:49:33.845Z,95884.00
2024-01-24T08:50:33.707Z,95890.00
2024-01-24T08:51:33.807Z,95895.00
2024-01-24T08:52:33.801Z,95887.00
2024-01-24T08:53:33.844Z,95865.00
2024-01-24T08:54:34.979Z,95884.00
2024-01-24T08:55:34.013Z,95892.00
2024-01-24T08:56:34.017Z,95876.00
2024-01-24T08:57:34.105Z,95879.00
2024-01-24T08:58:34.085Z,95888.00
2024-01-24T08:59:34.157Z,95900.00
2024-01-24T09:00:34.223Z,95897.00
2024-01-24T09:01:34.330Z,95899.00
2024-01-24T09:02:34.325Z,95905.00
2024-01-24T09:03:34.421Z,95901.00
2024-01-24T09:04:34.537Z,95911.00
2024-01-24T09:05:34.426Z,95902.00
2024-01-24T09:06:34.456Z,95887.00
2024-01-24T09:07:34.462Z,95870.00
2024-01-24T09:08:34.546Z,95878.00
2024-01-24T09:09:34.812Z,95874.00
2024-01-24T09:10:34.643Z,95872.00
2024-01-24T09:11:38.581Z,95884.00
2024-01-24T09:12:35.683Z,95880.00
2024-01-24T09:13:34.651Z,95880.00
2024-01-24T09:14:34.667Z,95875.00
2024-01-24T09:15:35.861Z,95869.00
2024-01-24T09:16:34.656Z,95864.00
2024-01-24T09:17:34.656Z,95869.00
2024-01-24T09:18:34.989Z,95872.00
2024-01-24T09:19:34.772Z,95869.00
2024-01-24T09:20:34.685Z,95883.00
2024-01-24T09:21:34.678Z,95885.00
2024-01-24T09:22:34.724Z,95889.00
2024-01-24T09:23:34.713Z,95880.00
2024-01-24T09:24:34.688Z,95876.00
2024-01-24T09:25:34.668Z,95890.00
2024-01-24T09:26:34.710Z,95886.00
2024-01-24T09:27:34.790Z,95882.00
2024-01-24T09:28:34.690Z,95886.00
2024-01-24T09:29:34.755Z,95887.00
2024-01-24T09:30:34.776Z,95876.00
2024-01-24T09:31:34.827Z,95866.00
2024-01-24T09:32:34.990Z,95868.00
2024-01-24T09:33:36.902Z,95883.00
2024-01-24T09:34:35.079Z,95897.00
2024-01-24T09:35:35.063Z,95895.00
2024-01-24T09:36:34.937Z,95870.00
2024-01-24T09:37:34.921Z,95872.00
2024-01-24T09:38:34.871Z,95862.00
2024-01-24T09:39:35.333Z,95873.00
2024-01-24T09:40:35.007Z,95869.00
2024-01-24T09:41:34.891Z,95835.00
2024-01-24T09:42:34.934Z,95844.00
2024-01-24T09:43:34.906Z,95873.00
2024-01-24T09:44:34.917Z,95895.00
2024-01-24T09:45:34.973Z,95873.00
2024-01-24T09:46:34.898Z,95869.00
2024-01-24T09:47:34.933Z,95869.00
2024-01-24T09:48:34.919Z,95854.00
2024-01-24T09:49:35.077Z,95832.00
2024-01-24T09:50:34.915Z,95828.00
2024-01-24T09:51:34.941Z,95844.00
2024-01-24T09:52:34.977Z,95829.00
2024-01-24T09:53:34.905Z,95829.00
2024-01-24T09:54:34.957Z,95823.00
2024-01-24T09:55:34.926Z,95820.00
2024-01-24T09:56:35.009Z,95831.00
2024-01-24T09:57:35.061Z,95837.00
2024-01-24T09:58:34.911Z,95834.00
2024-01-24T09:59:35.324Z,95840.00
2024-01-24T10:00:35.017Z,95826.00
2024-01-24T10:01:34.993Z,95811.00
2024-01-24T10:02:34.926Z,95816.00
2024-01-24T10:03:37.774Z,95826.00
2024-01-24T10:04:35.001Z,95830.00
2024-01-24T10:05:34.950Z,95826.00
2024-01-24T10:06:35.011Z,95825.00
2024-01-24T10:07:34.975Z,95820.00
2024-01-24T10:08:34.951Z,95791.00
2024-01-24T10:09:35.402Z,95815.00
2024-01-24T10:10:34.914Z,95822.00
2024-01-24T10:11:34.925Z,95790.00
2024-01-24T10:12:34.961Z,95800.00
2024-01-24T10:13:34.939Z,95798.00
2024-01-24T10:14:34.952Z,95784.00
2024-01-24T10:15:34.963Z,95801.00
2024-01-24T10:16:34.965Z,95791.00
2024-01-24T10:17:35.041Z,95810.00
2024-01-24T10:18:35.058Z,95822.00
2024-01-24T10:19:35.030Z,95816.00
2024-01-24T10:20:34.954Z,95771.00
2024-01-24T10:21:34.975Z,95778.00
2024-01-24T10:22:34.975Z,95771.00
2024-01-24T10:23:35.308Z,95793.00
2024-01-24T10:24:34.998Z,95814.00
2024-01-24T10:25:34.971Z,95812.00
2024-01-24T10:26:35.005Z,95800.00
2024-01-24T10:27:35.011Z,95806.00
2024-01-24T10:28:34.979Z,95797.00
2024-01-24T10:29:35.381Z,95794.00
2024-01-24T10:30:35.001Z,95772.00
2024-01-24T10:31:34.991Z,95788.00
2024-01-24T10:32:34.984Z,95808.00
2024-01-24T10:33:35.065Z,95777.00
2024-01-24T10:34:35.128Z,95783.00
2024-01-24T10:35:34.993Z,95789.00
2024-01-24T10:36:35.258Z,95771.00
2024-01-24T10:37:35.476Z,95773.00
2024-01-24T10:38:34.955Z,95773.00
2024-01-24T10:39:35.047Z,95771.00
2024-01-24T10:40:35.044Z,95777.00
2024-01-24T10:41:34.988Z,95764.00
2024-01-24T10:42:34.965Z,95784.00
2024-01-24T10:43:34.946Z,95790.00
2024-01-24T10:44:34.980Z,95767.00
2024-01-24T10:45:35.416Z,95759.00
2024-01-24T10:46:35.003Z,95760.00
2024-01-24T10:47:35.026Z,95771.00
2024-01-24T10:48:35.213Z,95769.00
2024-01-24T10:49:35.035Z,95776.00
2024-01-24T10:50:35.336Z,95763.00
2024-01-24T10:51:35.290Z,95766.00
2024-01-24T10:52:35.996Z,95778.00
2024-01-24T10:53:35.020Z,95771.00
2024-01-24T10:54:35.035Z,95751.00
2024-01-24T10:55:35.351Z,95746.00
2024-01-24T10:56:35.089Z,95756.00
2024-01-24T10:57:35.016Z,95746.00
2024-01-24T10:58:34.983Z,95736.00
2024-01-24T10:59:35.001Z,95719.00
2024-01-24T11:00:35.082Z,95717.00
2024-01-24T11:01:35.073Z,95704.00
2024-01-24T11:02:35.057Z,95732.00
2024-01-24T11:03:35.118Z,95728.00
2024-01-24T11:04:35.073Z,95715.00
2024-01-24T11:05:35.070Z,95715.00
2024-01-24T11:06:35.111Z,95699.00
2024-01-24T11:07:34.995Z,95712.00
2024-01-24T11:08:40.521Z,95729.00
2024-01-24T11:09:36.092Z,95721.00
2024-01-24T11:10:35.027Z,95715.00
2024-01-24T11:11:35.019Z,95712.00
2024-01-24T11:12:35.034Z,95703.00
2024-01-24T11:13:35.011Z,95698.00
2024-01-24T11:14:35.235Z,95706.00
2024-01-24T11:15:35.070Z,95711.00
2024-01-24T11:16:35.008Z,95705.00
2024-01-24T11:17:35.055Z,95704.00
2024-01-24T11:18:35.188Z,95697.00
2024-01-24T11:19:35.327Z,95702.00
2024-01-24T11:20:35.039Z,95692.00
2024-01-24T11:21:36.743Z,95672.00
2024-01-24T11:22:35.076Z,95695.00
2024-01-24T11:23:35.008Z,95703.00
2024-01-24T11:24:35.054Z,95693.00
2024-01-24T11:25:35.040Z,95685.00
2024-01-24T11:26:35.044Z,95687.00
2024-01-24T11:27:35.932Z,95688.00
2024-01-24T11:28:35.099Z,95682.00
2024-01-24T11:29:35.160Z,95684.00
2024-01-24T11:30:35.217Z,95672.00
2024-01-24T11:31:35.217Z,95678.00
2024-01-24T11:32:35.308Z,95676.00
2024-01-24T11:33:35.468Z,95678.00
2024-01-24T11:34:35.474Z,95670.00
2024-01-24T11:35:35.515Z,95671.00
2024-01-24T11:36:35.398Z,95651.00
2024-01-24T11:37:35.425Z,95645.00
2024-01-24T11:38:35.449Z,95641.00
2024-01-24T11:39:35.614Z,95628.00
2024-01-24T11:40:35.880Z,95624.00
2024-01-24T11:41:35.573Z,95630.00
2024-01-24T11:42:35.662Z,95633.00
2024-01-24T11:43:38.305Z,95642.00
2024-01-24T11:44:35.614Z,95643.00
2024-01-24T11:45:35.972Z,95640.00